Wednesday, November 22, 2017, 11:40 AM EST
Back to Local

KELZ, Wellsville Municipal Airport

Location: Wellsville, NY, United States Lat: 42.1
Local Time: 11:40 AM EST (16:40 GMT) Lon: -78
Time Zone: US/Eastern Elev: 2122 ft

Show me the last for .
Show Decoded

2017-11-22 11:00 METAR KELZ 221600Z AUTO 33011KT 10SM FEW009 BKN013 OVC023 01/M03 A3005 RMK AO2
                 T00061028 $ =
2017-11-22 10:56 METAR KELZ 221556Z AUTO 33009KT 10SM SCT013 BKN021 OVC037 01/M03 A3005 RMK AO2
                 SLP190 T00061028 $ =
2017-11-22 10:36 METAR KELZ 221536Z AUTO 31012KT 10SM SCT014 BKN021 OVC029 01/M03 A3005 RMK AO2
                 T00111033 $ =
2017-11-22 10:22 METAR KELZ 221522Z AUTO 30011KT 10SM BKN014 OVC022 01/M03 A3005 RMK AO2
                 T00061028 $ =
2017-11-22 09:56 METAR KELZ 221456Z AUTO 30009KT 10SM SCT014 BKN018 OVC024 01/M03 A3005 RMK AO2
                 SNB33E37 SLP188 P0000 60000 I3000 T00111028 51022 $ =
2017-11-22 09:31 METAR KELZ 221431Z AUTO 31011KT 8SM SCT010 BKN018 OVC055 01/M03 A3005 RMK AO2
                 T00061028 $ =
2017-11-22 08:56 METAR KELZ 221356Z AUTO 31011KT 9SM BKN010 OVC016 01/M02 A3004 RMK AO2 UPB11E49
                 CIG 008V013 SLP187 P0000 I1000 T00061022 $ =
2017-11-22 08:37 METAR KELZ 221337Z AUTO 33015G20KT 7SM UP SCT006 OVC014 01/M03 A3004 RMK AO2
                 UPB11 P0000 I1000 T00061028 $ =
2017-11-22 08:29 METAR KELZ 221329Z AUTO 32013G19KT 3SM UP BKN005 OVC016 01/M02 A3003 RMK AO2
                 UPB11 P0000 I1000 T00061022 $ =
2017-11-22 08:16 METAR KELZ 221316Z AUTO 32013KT 1 3/4SM UP BKN005 OVC012 01/M02 A3003 RMK AO2
                 UPB11 CIG 004V009 P0000 T00111017 $ =
2017-11-22 07:56 METAR KELZ 221256Z AUTO 34013KT 9SM OVC007 01/M02 A3001 RMK AO2 SNB27E48 CIG
                 005V010 SLP175 P0000 T00111017 $ =
2017-11-22 07:45 METAR KELZ 221245Z AUTO 34009KT 3SM -SN OVC009 01/M02 A3000 RMK AO2 SNB27 CIG
                 005V012 P0000 T00111017 $ =
2017-11-22 07:32 METAR KELZ 221232Z AUTO 33010KT 1 3/4SM -SN BKN008 OVC012 01/M02 A3000 RMK AO2
                 SNB27 CIG 005V009 P0000 T00111017 $ =
2017-11-22 06:56 METAR KELZ 221156Z AUTO 33007KT 8SM BKN006 BKN012 OVC035 02/M02 A2998 RMK AO2
                 SNE54 CIG 004V009 SLP164 P0000 60005 70005 T00171017 10089 20011 53022 =
2017-11-22 06:46 METAR KELZ 221146Z AUTO 32009KT 3SM -SN BR BKN006 OVC025 01/M01 A2997 RMK AO2
                 P0000 T00111011 =
2017-11-22 05:56 METAR KELZ 221056Z AUTO 31011KT 1 1/2SM -SN BKN005 OVC015 02/M01 A2995 RMK AO2
                 SLP154 P0002 T00221006 =
2017-11-22 05:28 METAR KELZ 221028Z AUTO 31010KT 1SM -SN BKN005 OVC014 02/M01 A2994 RMK AO2 P0001
                 T00221006 =
2017-11-22 05:05 METAR KELZ 221005Z AUTO 31009KT 1 1/4SM -SN SCT006 BKN018 OVC033 02/M01 A2993
                 RMK AO2 P0000 T00221006 =
2017-11-22 04:56 METAR KELZ 220956Z AUTO 31011KT 1 3/4SM -SN BKN006 BKN020 OVC033 03/M01 A2993
                 RMK AO2 RAE11SNB11 SLP145 P0003 T00281006 =
2017-11-22 04:45 METAR KELZ 220945Z AUTO 32010KT 5SM -SN BKN006 BKN011 OVC033 03/00 A2993 RMK AO2
                 RAE11SNB11 P0003 T00280000 =
2017-11-22 04:32 METAR KELZ 220932Z AUTO 32006KT 2 1/2SM -SN BKN007 BKN022 OVC034 03/00 A2993 RMK
                 AO2 RAE11SNB11 P0002 T00280000 =
2017-11-22 04:19 METAR KELZ 220919Z AUTO 32008KT 4SM -SN BKN007 BKN013 OVC022 03/00 A2992 RMK AO2
                 RAE11SNB11 P0001 T00280000 =
2017-11-22 03:56 METAR KELZ 220856Z AUTO 32013KT 8SM -RA BKN010 OVC017 04/00 A2991 RMK AO2 RAB51
                 CIG 008V012 SLP136 P0000 60000 T00390000 51014 =
2017-11-22 03:51 METAR KELZ 220851Z AUTO 32010KT 10SM -RA OVC010 04/01 A2991 RMK AO2 RAB51 CIG
                 008V015 P0000 =
2017-11-22 03:42 METAR KELZ 220842Z AUTO 31009KT 280V350 10SM BKN009 OVC017 05/01 A2990 RMK AO2
                 CIG 008V015 T00500011 =
2017-11-22 03:35 METAR KELZ 220835Z AUTO 30014KT 10SM SCT009 BKN013 OVC035 05/01 A2990 RMK AO2
                 T00500011 =
2017-11-22 03:31 METAR KELZ 220831Z AUTO 30011KT 10SM SCT012 BKN017 OVC035 06/01 A2990 RMK AO2
                 T00610011 =
2017-11-22 02:56 METAR KELZ 220756Z AUTO 29007KT 10SM OVC039 07/00 A2988 RMK AO2 SLP123 T00670000
                 =
2017-11-22 01:56 METAR KELZ 220656Z AUTO 25003KT 10SM CLR 08/M02 A2986 RMK AO2 SLP116 T00781022 =
2017-11-22 00:56 METAR KELZ 220556Z AUTO 26008KT 10SM FEW120 09/M02 A2986 RMK AO2 SLP114
                 T00891022 10100 20089 58008 =
2017-11-21 23:56 METAR KELZ 220456Z AUTO 25007KT 10SM FEW050 SCT120 09/M03 A2988 RMK AO2 SLP122
                 T00891028 401330033 =
2017-11-21 22:56 METAR KELZ 220356Z AUTO 23008KT 10SM BKN050 09/M03 A2988 RMK AO2 SLP122
                 T00941033 =
2017-11-21 21:56 METAR KELZ 220256Z AUTO 23008KT 10SM CLR 09/M03 A2988 RMK AO2 SLP125 T00941033
                 51003 =
2017-11-21 20:56 METAR KELZ 220156Z AUTO 23010KT 10SM CLR 09/M04 A2988 RMK AO2 SLP126 T00941044 =
2017-11-21 19:56 METAR KELZ 220056Z AUTO 23009G17KT 10SM CLR 09/M04 A2988 RMK AO2 SLP125
                 T00941044 =
2017-11-21 18:56 METAR KELZ 212356Z AUTO 23010G15KT 10SM CLR 09/M05 A2987 RMK AO2 SLP125
                 T00941050 10133 20094 51012 =
2017-11-21 17:56 METAR KELZ 212256Z AUTO 22006KT 10SM CLR 10/M05 A2987 RMK AO2 SLP123 T01001050 =
2017-11-21 16:56 METAR KELZ 212156Z AUTO 22008KT 10SM CLR 11/M05 A2985 RMK AO2 SLP117 T01111050 =
2017-11-21 15:56 METAR KELZ 212056Z AUTO 20013G20KT 10SM CLR 12/M04 A2984 RMK AO2 PK WND
                 25026/2013 SLP110 T01221044 53010 =
2017-11-21 14:56 METAR KELZ 211956Z AUTO 21013G21KT 10SM CLR 13/M04 A2981 RMK AO2 PK WND
                 22026/1903 SLP103 T01281044 =
2017-11-21 13:56 METAR KELZ 211856Z AUTO 21009G20KT 180V260 10SM CLR 13/M06 A2980 RMK AO2 PK WND
                 24027/1821 SLP096 T01281056 =
2017-11-21 12:56 METAR KELZ 211756Z AUTO 21012G22KT 190V260 10SM CLR 12/M06 A2980 RMK AO2 PK WND
                 22028/1735 SLP100 T01171061 10117 20044 56014 =
2017-11-21 11:56 METAR KELZ 211656Z AUTO 20014G27KT 160V240 10SM CLR 11/M07 A2981 RMK AO2 PK WND
                 19027/1655 SLP104 T01111072 =

Support USWX by starting your Amazon purchase here.